Time;durP1;ratioP1;P1;durP2;ratioP2;P2;SDS_P1;SDS_P2;PMS_P1;PMS_P2;Temp;Humidity;BMP_temperature;BMP_pressure;BME280_temperature;BME280_humidity;BME280_pressure;Samples;Min_cycle;Max_cycle;Signal;HPM_P1;HPM_P2
2021/01/03 00:02:07;;;;;;;100.55;35.35;;;;;;;0.37;94.66;102555.34;1683754;85;21520;-90
2021/01/03 00:04:35;;;;;;;97.60;36.53;;;;;;;0.33;94.38;102547.83;1683409;85;21134;-90
2021/01/03 00:07:02;;;;;;;96.15;36.25;;;;;;;0.32;94.53;102554.09;1683412;85;21654;-90
2021/01/03 00:09:27;;;;;;;109.92;39.00;;;;;;;0.35;94.61;102555.13;1683473;85;21599;-90
2021/01/03 00:11:54;;;;;;;106.10;38.17;;;;;;;0.38;94.75;102554.84;1683369;85;21051;-90
2021/01/03 00:14:21;;;;;;;107.27;37.98;;;;;;;0.47;94.99;102559.77;1683570;85;21205;-90
2021/01/03 00:16:54;;;;;;;105.22;39.08;;;;;;;0.52;94.52;102566.81;1683378;85;21165;-90
2021/01/03 00:19:21;;;;;;;89.37;34.08;;;;;;;0.51;94.33;102557.20;1683163;85;21277;-90
2021/01/03 00:21:49;;;;;;;104.15;36.85;;;;;;;0.37;94.44;102562.46;1683719;85;21354;-90
2021/01/03 00:24:15;;;;;;;100.20;38.53;;;;;;;0.38;94.61;102561.00;1688662;84;21185;-90
2021/01/03 00:26:40;;;;;;;96.55;37.08;;;;;;;0.40;94.65;102565.66;1697730;84;21055;-91
2021/01/03 00:29:06;;;;;;;113.15;38.30;;;;;;;0.42;94.74;102568.17;1698155;84;20967;-91
2021/01/03 00:31:33;;;;;;;97.22;33.60;;;;;;;0.55;95.05;102566.52;1697656;83;21238;-91
2021/01/03 00:33:59;;;;;;;101.42;35.50;;;;;;;0.56;94.73;102569.05;1693804;84;21205;-90
2021/01/03 00:36:25;;;;;;;100.78;36.63;;;;;;;0.60;94.89;102572.23;1698110;83;21050;-91
2021/01/03 00:38:50;;;;;;;106.05;37.35;;;;;;;0.66;94.94;102572.48;1697391;83;21002;-90
2021/01/03 00:41:16;;;;;;;103.02;35.83;;;;;;;0.69;94.79;102568.71;1697662;83;21038;-90
2021/01/03 00:43:42;;;;;;;93.78;35.17;;;;;;;0.72;94.65;102574.22;1677877;84;21090;-90
2021/01/03 00:46:08;;;;;;;99.45;34.08;;;;;;;0.81;95.06;102568.03;1697569;84;20923;-90
2021/01/03 00:48:34;;;;;;;88.65;32.70;;;;;;;0.86;94.70;102569.77;1697500;83;20971;-90
2021/01/03 00:51:00;;;;;;;82.97;33.30;;;;;;;0.81;94.37;102574.17;1697713;84;21503;-90
2021/01/03 00:53:26;;;;;;;90.83;33.90;;;;;;;0.81;94.35;102565.37;1697677;83;20959;-90
2021/01/03 00:55:52;;;;;;;86.08;31.97;;;;;;;0.85;94.68;102572.05;1698338;84;21270;-91
2021/01/03 00:58:17;;;;;;;76.37;29.87;;;;;;;0.89;94.47;102569.47;1697984;83;21184;-91
2021/01/03 01:00:43;;;;;;;78.47;31.07;;;;;;;0.81;94.09;102566.21;1697604;83;21105;-90
2021/01/03 01:03:09;;;;;;;84.22;31.68;;;;;;;0.84;94.52;102565.91;1697536;83;20931;-90
2021/01/03 01:05:35;;;;;;;83.12;30.45;;;;;;;0.84;94.75;102571.22;1697642;84;20979;-90
2021/01/03 01:08:01;;;;;;;69.75;27.35;;;;;;;0.87;94.75;102564.79;1677756;84;21287;-91
2021/01/03 01:10:29;;;;;;;78.65;29.07;;;;;;;0.82;94.92;102561.73;1697617;83;21619;-90
2021/01/03 01:13:00;;;;;;;76.40;29.42;;;;;;;0.81;94.95;102571.52;1697378;84;21133;-90
2021/01/03 01:15:29;;;;;;;81.50;28.30;;;;;;;0.89;95.14;102569.47;1697634;84;21129;-90
2021/01/03 01:18:01;;;;;;;85.28;29.63;;;;;;;0.96;95.44;102567.05;1697823;83;21219;-90
2021/01/03 01:20:29;;;;;;;70.65;27.50;;;;;;;1.00;95.66;102563.11;1694770;84;21295;-91
2021/01/03 01:22:55;;;;;;;74.47;28.30;;;;;;;1.07;95.53;102573.50;1697566;83;21122;-91
2021/01/03 01:25:26;;;;;;;73.75;26.68;;;;;;;1.16;95.77;102566.47;1704663;83;21065;-92
2021/01/03 01:27:54;;;;;;;75.90;27.32;;;;;;;1.16;95.23;102568.63;1705426;83;21161;-91
2021/01/03 01:30:22;;;;;;;74.58;28.40;;;;;;;1.12;95.55;102565.93;1705162;83;21148;-91
2021/01/03 01:32:48;;;;;;;70.83;26.82;;;;;;;1.18;95.61;102567.12;1705528;83;21165;-91
2021/01/03 01:35:20;;;;;;;76.45;27.02;;;;;;;1.24;95.83;102570.55;1705249;84;21189;-92
2021/01/03 01:37:46;;;;;;;79.03;26.90;;;;;;;1.27;96.06;102551.66;1702542;84;21185;-92
2021/01/03 01:40:16;;;;;;;80.17;28.57;;;;;;;1.33;96.06;102558.52;1705346;84;21098;-92
2021/01/03 01:42:44;;;;;;;73.60;28.32;;;;;;;1.40;95.93;102558.75;1705041;84;21563;-92
2021/01/03 01:45:12;;;;;;;77.90;28.73;;;;;;;1.48;95.97;102564.65;1705193;84;21579;-93
2021/01/03 01:47:42;;;;;;;80.25;26.95;;;;;;;1.51;95.34;102565.67;1685084;84;21172;-92
2021/01/03 01:50:13;;;;;;;84.20;27.65;;;;;;;1.53;95.68;102566.34;1705476;83;21204;-92
2021/01/03 01:52:45;;;;;;;66.25;23.80;;;;;;;1.58;95.56;102565.40;1702249;84;21109;-93
2021/01/03 01:55:19;;;;;;;68.10;24.05;;;;;;;1.70;95.66;102566.84;1702716;84;21542;-92
2021/01/03 01:57:54;;;;;;;65.72;24.25;;;;;;;1.74;95.56;102561.58;1705697;83;21252;-93
2021/01/03 02:00:27;;;;;;;72.55;24.47;;;;;;;1.75;95.50;102555.27;1637540;87;22253;-92
2021/01/03 02:03:27;;;;;;;79.47;25.15;;;;;;;1.71;95.43;102555.23;1592798;90;21233;-94
2021/01/03 02:06:05;;;;;;;72.10;25.60;;;;;;;1.85;95.41;102562.31;1593009;90;21222;-92
2021/01/03 02:08:38;;;;;;;70.65;24.57;;;;;;;1.85;95.65;102563.64;1590168;90;21630;-93
2021/01/03 02:11:11;;;;;;;67.72;24.57;;;;;;;1.88;95.63;102559.34;1515578;94;21750;-94
2021/01/03 02:13:43;;;;;;;72.72;26.75;;;;;;;1.90;95.51;102565.36;1518273;94;21745;-94
2021/01/03 02:16:17;;;;;;;69.20;24.07;;;;;;;2.12;94.96;102554.23;1518189;94;21230;-94
2021/01/03 02:18:46;;;;;;;61.73;24.37;;;;;;;2.06;95.19;102550.88;1461926;96;21252;-92
2021/01/03 02:21:38;;;;;;;62.43;23.02;;;;;;;2.09;95.38;102551.89;1461939;98;21223;-93
2021/01/03 02:24:15;;;;;;;57.40;21.68;;;;;;;2.08;94.85;102551.53;1458084;98;21338;-91
2021/01/03 02:26:46;;;;;;;58.42;21.77;;;;;;;2.12;95.04;102548.92;1443186;99;21270;-91
2021/01/03 02:29:16;;;;;;;56.83;20.97;;;;;;;2.22;94.82;102551.47;1443301;99;21248;-91
2021/01/03 02:31:47;;;;;;;58.35;21.17;;;;;;;2.19;94.83;102554.44;1443168;99;21218;-90
2021/01/03 02:34:19;;;;;;;70.08;25.88;;;;;;;2.18;94.80;102550.12;1443480;99;21230;-90
2021/01/03 02:36:59;;;;;;;65.35;23.50;;;;;;;2.22;94.98;102550.97;1443170;98;21269;-90
2021/01/03 02:39:51;;;;;;;70.97;24.87;;;;;;;2.24;94.85;102550.83;1448417;93;21080;-91
2021/01/03 02:42:26;;;;;;;64.90;23.20;;;;;;;2.30;94.81;102554.19;1535064;93;21248;-90
2021/01/03 02:44:53;;;;;;;65.35;23.87;;;;;;;2.30;94.61;102542.72;1539421;92;21123;-91
2021/01/03 02:47:27;;;;;;;54.85;20.15;;;;;;;2.34;94.65;102542.73;1533695;93;21247;-90
2021/01/03 02:49:53;;;;;;;54.88;20.82;;;;;;;2.41;94.68;102557.06;1538638;93;21227;-90
2021/01/03 02:52:34;;;;;;;57.30;20.95;;;;;;;2.41;94.42;102554.41;1538802;92;21610;-90
2021/01/03 02:55:00;;;;;;;55.33;21.75;;;;;;;2.41;94.43;102561.05;1536145;93;21228;-90
2021/01/03 02:57:26;;;;;;;56.77;21.10;;;;;;;2.46;94.35;102558.27;1616538;88;21692;-90
2021/01/03 02:59:52;;;;;;;60.52;21.50;;;;;;;2.46;94.45;102556.94;1618148;88;21601;-90
2021/01/03 03:02:18;;;;;;;58.17;22.15;;;;;;;2.44;94.15;102558.08;1618062;88;21917;-90
2021/01/03 03:04:45;;;;;;;53.05;20.52;;;;;;;2.40;94.01;102559.40;1618058;88;21617;-90
2021/01/03 03:07:11;;;;;;;76.15;25.90;;;;;;;2.40;94.25;102555.41;1634748;84;21157;-90
2021/01/03 03:09:37;;;;;;;50.50;20.57;;;;;;;2.43;94.29;102557.75;1697509;84;21653;-90
2021/01/03 03:12:04;;;;;;;57.00;20.95;;;;;;;2.42;94.02;102562.74;1697434;84;21038;-90
2021/01/03 03:14:30;;;;;;;53.48;19.60;;;;;;;2.39;94.05;102571.04;1697338;84;21555;-89
2021/01/03 03:16:58;;;;;;;53.98;20.85;;;;;;;2.37;94.22;102558.38;1697418;84;20956;-90
2021/01/03 03:19:25;;;;;;;55.25;21.42;;;;;;;2.37;94.30;102560.55;1697534;83;21145;-90
2021/01/03 03:21:54;;;;;;;63.73;22.40;;;;;;;2.45;94.58;102568.58;1697416;83;21118;-90
2021/01/03 03:24:21;;;;;;;58.98;20.50;;;;;;;2.52;94.61;102566.12;1697481;83;21118;-90
2021/01/03 03:26:58;;;;;;;57.48;20.17;;;;;;;2.52;94.01;102571.44;1693994;84;21179;-90
2021/01/03 03:29:25;;;;;;;61.18;22.32;;;;;;;2.50;94.12;102570.78;1697811;83;21153;-90
2021/01/03 03:31:52;;;;;;;54.65;20.40;;;;;;;2.55;94.32;102561.81;1697237;84;21122;-91
2021/01/03 03:34:20;;;;;;;56.02;21.80;;;;;;;2.70;93.72;102565.54;1677241;84;21145;-90
2021/01/03 03:36:46;;;;;;;47.65;18.45;;;;;;;2.52;93.60;102566.12;1697513;84;21137;-90
2021/01/03 03:39:12;;;;;;;50.17;19.23;;;;;;;2.52;93.63;102571.44;1697266;83;21579;-91
2021/01/03 03:41:38;;;;;;;50.05;19.25;;;;;;;2.48;93.85;102572.76;1697082;84;21211;-90
2021/01/03 03:44:06;;;;;;;44.67;18.32;;;;;;;2.50;94.08;102567.62;1696823;84;21114;-90
2021/01/03 03:46:32;;;;;;;165.12;69.37;;;;;;;2.58;93.85;102564.66;1697455;83;21226;-91
2021/01/03 03:48:58;;;;;;;55.95;22.73;;;;;;;2.62;94.02;102564.70;1697110;84;21165;-91
2021/01/03 03:51:25;;;;;;;43.58;17.90;;;;;;;2.66;93.93;102563.38;1697420;84;21185;-91
2021/01/03 03:53:51;;;;;;;44.08;15.98;;;;;;;2.75;93.54;102569.07;1697292;84;21192;-90
2021/01/03 03:56:17;;;;;;;50.70;19.73;;;;;;;2.76;93.65;102567.23;1697785;83;21196;-91
2021/01/03 03:58:48;;;;;;;50.55;20.50;;;;;;;2.77;93.67;102570.26;1697412;84;21560;-90
2021/01/03 04:01:14;;;;;;;51.05;19.12;;;;;;;2.81;93.87;102571.09;1616205;88;21524;-92
2021/01/03 04:03:40;;;;;;;53.02;18.87;;;;;;;2.84;93.89;102566.78;1616594;88;21574;-91
2021/01/03 04:06:06;;;;;;;42.03;16.50;;;;;;;2.90;93.83;102570.63;1616496;88;21244;-92
2021/01/03 04:08:36;;;;;;;49.25;18.32;;;;;;;2.98;93.40;102573.34;1616394;88;21070;-91
2021/01/03 04:11:02;;;;;;;72.40;26.37;;;;;;;2.96;93.57;102576.14;1616880;88;21634;-94
2021/01/03 04:13:28;;;;;;;61.70;21.87;;;;;;;3.03;93.29;102576.83;1616398;88;21252;-92
2021/01/03 04:15:57;;;;;;;66.62;25.32;;;;;;;3.04;93.08;102576.69;1616920;88;21205;-92
2021/01/03 04:18:22;;;;;;;84.32;31.23;;;;;;;3.11;92.99;102579.03;1616956;88;21775;-93
2021/01/03 04:20:49;;;;;;;59.83;20.55;;;;;;;3.09;93.03;102576.19;1616793;88;20971;-91
2021/01/03 04:23:14;;;;;;;76.37;29.45;;;;;;;3.05;92.99;102585.50;1616628;88;21172;-92
2021/01/03 04:25:40;;;;;;;61.73;22.55;;;;;;;3.00;92.88;102576.69;1621209;87;21340;-93
2021/01/03 04:28:06;;;;;;;94.00;32.38;;;;;;;3.07;93.19;102577.70;1624111;87;21306;-93
2021/01/03 04:30:32;;;;;;;82.02;29.50;;;;;;;3.14;92.93;102577.88;1620037;88;21043;-93
2021/01/03 04:32:58;;;;;;;71.47;26.40;;;;;;;3.21;92.87;102578.92;1687194;83;21027;-93
2021/01/03 04:35:24;;;;;;;64.90;23.35;;;;;;;3.13;92.95;102581.05;1705542;83;20954;-93
2021/01/03 04:37:53;;;;;;;62.48;21.60;;;;;;;3.18;92.69;102586.73;1701911;84;21161;-92
2021/01/03 04:40:26;;;;;;;73.45;25.40;;;;;;;3.16;92.60;102587.38;1705378;84;21153;-93
2021/01/03 04:43:00;;;;;;;82.10;29.23;;;;;;;3.08;92.71;102581.19;1705880;83;21165;-93
2021/01/03 04:45:39;;;;;;;50.25;19.52;;;;;;;3.20;92.67;102587.88;1705382;84;21137;-92
2021/01/03 04:48:27;;;;;;;67.55;24.55;;;;;;;3.14;93.05;102598.69;1705490;82;21290;-95
2021/01/03 04:51:08;;;;;;;85.75;29.85;;;;;;;3.11;92.94;102593.68;1702698;84;21066;-93
2021/01/03 04:53:58;;;;;;;60.08;22.85;;;;;;;3.15;93.14;102594.22;1709666;83;21344;-95
2021/01/03 04:56:53;;;;;;;63.50;23.98;;;;;;;3.23;92.94;102596.05;1709660;82;21199;-93
2021/01/03 04:59:46;;;;;;;84.58;29.32;;;;;;;3.21;93.12;102592.23;1709734;83;21729;-94
2021/01/03 05:02:52;;;;;;;55.40;20.88;;;;;;;3.24;92.81;102596.41;1685895;83;21195;-93
2021/01/03 05:05:35;;;;;;;57.23;18.67;;;;;;;3.24;92.96;102601.23;1709695;83;21207;-94
2021/01/03 05:08:10;;;;;;;48.55;18.30;;;;;;;3.26;92.87;102602.39;1709721;83;21978;-94
2021/01/03 05:10:36;;;;;;;57.93;22.60;;;;;;;3.31;92.83;102604.08;1706393;83;21025;-93
2021/01/03 05:13:42;;;;;;;52.95;18.32;;;;;;;3.29;92.89;102601.56;1709495;83;20966;-93
2021/01/03 05:16:13;;;;;;;55.35;19.15;;;;;;;3.28;92.82;102598.58;1683913;84;21172;-93
2021/01/03 05:18:39;;;;;;;64.40;23.05;;;;;;;3.28;93.12;102597.74;1660952;85;21439;-94
2021/01/03 05:21:07;;;;;;;53.00;20.30;;;;;;;3.32;93.16;102595.08;1683608;85;21268;-94
2021/01/03 05:23:40;;;;;;;49.90;17.80;;;;;;;3.43;92.98;102593.95;1683536;85;21600;-95
2021/01/03 05:26:09;;;;;;;53.78;18.07;;;;;;;3.48;92.58;102598.30;1660863;85;21259;-95
2021/01/03 05:28:37;;;;;;;48.38;16.87;;;;;;;3.18;91.12;102594.72;1675255;85;21172;-95
2021/01/03 05:31:17;;;;;;;50.05;17.37;;;;;;;3.08;91.32;102599.33;1683586;85;21153;-95
2021/01/03 05:34:05;;;;;;;49.73;18.00;;;;;;;2.72;91.55;102590.19;1683823;84;21165;-94
2021/01/03 05:36:47;;;;;;;47.80;17.30;;;;;;;2.69;91.98;102602.98;1683954;84;21228;-95
2021/01/03 05:39:27;;;;;;;44.42;16.12;;;;;;;2.53;92.13;102597.08;1683558;84;21144;-96
2021/01/03 05:42:19;;;;;;;42.60;16.07;;;;;;;2.50;92.41;102600.88;1683642;85;21162;-96
2021/01/03 05:45:05;;;;;;;38.33;15.55;;;;;;;2.44;92.53;102603.31;1683801;85;21652;-96
2021/01/03 05:47:39;;;;;;;44.65;15.98;;;;;;;2.33;93.14;102596.94;1683746;85;21917;-96
2021/01/03 05:50:19;;;;;;;42.17;15.08;;;;;;;2.17;93.52;102601.12;1670889;85;21159;-94
2021/01/03 05:53:00;;;;;;;38.15;15.03;;;;;;;2.18;93.63;102606.81;1672262;84;21622;-96
2021/01/03 05:55:28;;;;;;;42.78;16.00;;;;;;;2.21;93.72;102607.83;1710115;82;21615;-95
2021/01/03 05:58:18;;;;;;;43.20;16.40;;;;;;;2.26;93.89;102606.88;1684931;84;21132;-96
2021/01/03 06:00:45;;;;;;;40.05;15.35;;;;;;;2.30;94.21;102607.39;1685456;85;21239;-95
2021/01/03 06:03:22;;;;;;;46.20;16.17;;;;;;;2.33;94.32;102609.74;1658912;85;21135;-95
2021/01/03 06:05:56;;;;;;;48.08;17.75;;;;;;;2.41;94.36;102611.61;1701606;83;21205;-96
2021/01/03 06:08:27;;;;;;;47.58;18.07;;;;;;;2.42;94.67;102614.13;1674273;85;21178;-95
2021/01/03 06:10:56;;;;;;;57.83;19.12;;;;;;;2.46;94.22;102620.80;1673355;85;21095;-96
2021/01/03 06:13:27;;;;;;;54.20;20.52;;;;;;;2.55;94.49;102615.53;1650355;85;21197;-95
2021/01/03 06:15:59;;;;;;;49.55;18.60;;;;;;;2.63;94.62;102621.74;1654783;86;21832;-96
2021/01/03 06:18:41;;;;;;;53.80;19.30;;;;;;;2.71;94.53;102623.13;1647422;86;21247;-95
2021/01/03 06:21:21;;;;;;;56.63;18.95;;;;;;;2.77;94.32;102623.50;1651920;86;21205;-95
2021/01/03 06:24:10;;;;;;;55.88;20.82;;;;;;;2.84;94.56;102620.53;1606477;89;21210;-96
2021/01/03 06:26:41;;;;;;;46.92;17.95;;;;;;;2.90;94.57;102621.23;1586613;89;21205;-95
2021/01/03 06:29:15;;;;;;;50.12;18.92;;;;;;;3.01;94.68;102621.45;1574860;91;21259;-96
2021/01/03 06:31:47;;;;;;;47.00;16.95;;;;;;;3.07;94.57;102617.65;1584444;90;21220;-96
2021/01/03 06:34:29;;;;;;;48.95;16.35;;;;;;;3.12;94.64;102626.00;1583841;90;21656;-93
2021/01/03 06:37:01;;;;;;;40.28;15.50;;;;;;;3.21;94.48;102622.02;1586982;90;21098;-94
2021/01/03 06:39:32;;;;;;;43.02;16.05;;;;;;;3.26;94.28;102634.36;1587025;90;21842;-93
2021/01/03 06:42:25;;;;;;;45.12;16.25;;;;;;;3.35;94.00;102630.26;1586811;90;21244;-94
2021/01/03 06:45:49;;;;;;;46.70;17.62;;;;;;;3.43;93.87;102637.42;1543516;92;21188;-95
2021/01/03 06:48:23;;;;;;;46.75;17.75;;;;;;;3.60;93.25;102632.98;1521140;94;21853;-96
2021/01/03 06:51:01;;;;;;;50.52;19.25;;;;;;;3.56;93.70;102647.14;1520972;94;21269;-95
2021/01/03 06:54:06;;;;;;;49.93;19.45;;;;;;;3.58;93.83;102643.80;1509749;95;21340;-95
2021/01/03 06:57:03;;;;;;;52.25;19.60;;;;;;;3.62;93.76;102650.99;1528586;93;21163;-95
2021/01/03 06:59:53;;;;;;;52.35;18.92;;;;;;;3.72;93.41;102650.34;1545285;91;21168;-96
2021/01/03 07:02:21;;;;;;;61.40;21.10;;;;;;;3.84;93.20;102656.19;1549494;92;21313;-95
2021/01/03 07:04:48;;;;;;;54.85;20.02;;;;;;;3.79;92.82;102655.33;1549378;92;21631;-95
2021/01/03 07:07:18;;;;;;;51.90;18.90;;;;;;;3.86;92.17;102648.36;1529870;92;21551;-94
2021/01/03 07:10:08;;;;;;;49.98;18.12;;;;;;;3.89;92.31;102658.38;1525786;94;21234;-95
2021/01/03 07:12:45;;;;;;;43.90;16.77;;;;;;;3.97;91.75;102655.70;1516786;94;21256;-93
2021/01/03 07:15:32;;;;;;;47.73;18.80;;;;;;;3.84;92.09;102657.52;1512418;94;21372;-93
2021/01/03 07:18:21;;;;;;;44.73;17.27;;;;;;;3.84;91.84;102659.69;1512105;93;21350;-91
2021/01/03 07:21:08;;;;;;;39.83;15.45;;;;;;;4.09;91.90;102658.41;1511918;93;21478;-93
2021/01/03 07:23:39;;;;;;;44.90;17.67;;;;;;;3.92;91.28;102657.55;1511832;93;21233;-95
2021/01/03 07:26:27;;;;;;;43.92;14.65;;;;;;;3.99;91.57;102665.72;1461362;96;21614;-92
2021/01/03 07:29:16;;;;;;;51.37;18.07;;;;;;;4.07;91.33;102667.89;1469096;95;21269;-94
2021/01/03 07:31:50;;;;;;;43.35;16.20;;;;;;;4.06;91.03;102668.91;1483536;96;21294;-94
2021/01/03 07:34:24;;;;;;;41.33;16.10;;;;;;;4.01;90.70;102680.56;1494912;96;21494;-94
2021/01/03 07:36:58;;;;;;;40.83;17.52;;;;;;;3.92;90.45;102676.72;1494760;96;21215;-94
2021/01/03 07:39:32;;;;;;;44.65;18.62;;;;;;;3.99;91.05;102681.72;1495022;96;21323;-94
2021/01/03 07:42:21;;;;;;;46.45;20.27;;;;;;;4.07;90.66;102685.23;1494716;96;21362;-93
2021/01/03 07:44:49;;;;;;;45.35;19.35;;;;;;;4.04;90.95;102689.56;1495093;96;21219;-93
2021/01/03 07:47:36;;;;;;;43.08;18.12;;;;;;;4.20;90.94;102687.41;1495118;94;21279;-94
2021/01/03 07:50:35;;;;;;;44.95;17.73;;;;;;;4.13;90.38;102695.75;1498731;94;21276;-94
2021/01/03 07:53:29;;;;;;;41.88;18.10;;;;;;;4.17;90.20;102690.91;1431116;99;21807;-94
2021/01/03 07:56:18;;;;;;;46.05;17.85;;;;;;;4.13;89.76;102691.75;1431035;99;22557;-92
2021/01/03 07:58:50;;;;;;;44.03;18.27;;;;;;;4.14;90.00;102687.23;1431096;99;21663;-94
2021/01/03 08:01:19;;;;;;;43.13;17.50;;;;;;;4.15;90.07;102681.75;1431007;99;21644;-95
2021/01/03 08:03:45;;;;;;;48.08;18.85;;;;;;;4.20;90.08;102681.23;1414472;99;21222;-94
2021/01/03 08:06:12;;;;;;;38.00;17.23;;;;;;;4.39;89.63;102688.93;1435963;97;21157;-94
2021/01/03 08:08:38;;;;;;;38.30;14.90;;;;;;;4.35;89.89;102691.58;1494230;94;21195;-94
2021/01/03 08:11:34;;;;;;;37.15;15.43;;;;;;;4.44;89.73;102690.61;1493727;95;21262;-94
2021/01/03 08:14:05;;;;;;;36.17;14.28;;;;;;;4.38;89.70;102689.08;1493692;94;21284;-96
2021/01/03 08:16:31;;;;;;;37.98;14.10;;;;;;;4.42;89.47;102683.25;1493513;95;21661;-95
2021/01/03 08:19:05;;;;;;;38.42;15.72;;;;;;;4.51;89.23;102685.42;1493335;96;21267;-95
2021/01/03 08:21:37;;;;;;;38.83;15.78;;;;;;;4.48;89.34;102683.09;1470614;97;21641;-95
2021/01/03 08:24:16;;;;;;;40.03;15.43;;;;;;;4.44;89.22;102681.27;1519327;92;21289;-94
2021/01/03 08:27:00;;;;;;;39.18;14.63;;;;;;;4.51;89.51;102685.42;1536477;92;21445;-95
2021/01/03 08:29:45;;;;;;;37.42;12.93;;;;;;;4.55;88.98;102682.73;1542449;93;27075;-95
2021/01/03 08:32:18;;;;;;;30.92;11.75;;;;;;;4.70;88.69;102681.05;1540794;93;21689;-95
2021/01/03 08:34:45;;;;;;;30.95;11.78;;;;;;;4.63;88.52;102684.58;1542524;93;21305;-94
2021/01/03 08:37:21;;;;;;;31.80;12.25;;;;;;;4.65;88.52;102679.41;1542327;93;21253;-94
2021/01/03 08:39:51;;;;;;;35.85;13.45;;;;;;;4.73;88.96;102672.69;1518063;94;21341;-95
2021/01/03 08:42:28;;;;;;;32.10;13.08;;;;;;;4.88;88.34;102678.20;1517908;94;21289;-94
2021/01/03 08:44:58;;;;;;;37.75;13.98;;;;;;;4.78;87.92;102674.88;1518127;94;21225;-95
2021/01/03 08:47:37;;;;;;;35.17;13.58;;;;;;;4.89;88.38;102679.03;1535475;91;21264;-94
2021/01/03 08:50:23;;;;;;;28.65;11.57;;;;;;;4.97;86.31;102682.52;1573685;90;21285;-94
2021/01/03 08:53:10;;;;;;;35.43;13.03;;;;;;;4.87;86.98;102673.84;1588803;90;21223;-93
2021/01/03 08:55:39;;;;;;;29.67;12.18;;;;;;;4.77;87.06;102676.71;1589451;90;21663;-93
2021/01/03 08:58:19;;;;;;;31.57;11.95;;;;;;;4.75;87.48;102676.04;1595211;87;21158;-94
2021/01/03 09:00:49;;;;;;;331.13;97.65;;;;;;;4.90;87.57;102677.52;1602645;89;21922;-91
2021/01/03 09:03:22;;;;;;;160.70;50.75;;;;;;;4.89;87.46;102669.69;1581531;89;21289;-93
2021/01/03 09:05:51;;;;;;;121.00;47.20;;;;;;;4.85;86.67;102673.68;1602990;89;21172;-94
2021/01/03 09:08:36;;;;;;;63.52;29.77;;;;;;;4.97;87.48;102674.51;1602652;89;21119;-93
2021/01/03 09:11:17;;;;;;;42.80;18.92;;;;;;;5.13;86.77;102674.13;1526635;92;21230;-92
2021/01/03 09:13:51;;;;;;;34.85;16.27;;;;;;;5.00;86.10;102668.82;1546134;92;21242;-93
2021/01/03 09:16:46;;;;;;;54.20;25.62;;;;;;;5.06;86.54;102664.63;1550384;91;21188;-94
2021/01/03 09:19:20;;;;;;;31.17;12.65;;;;;;;5.16;86.50;102672.44;1550790;91;21262;-94
2021/01/03 09:21:59;;;;;;;33.25;12.58;;;;;;;5.16;85.78;102666.59;1550750;91;21219;-94
2021/01/03 09:24:29;;;;;;;32.33;12.65;;;;;;;5.16;86.45;102666.59;1550810;91;21046;-94
2021/01/03 09:26:57;;;;;;;34.23;14.50;;;;;;;5.12;86.02;102660.44;1462992;95;21128;-93
2021/01/03 09:29:31;;;;;;;41.30;15.30;;;;;;;5.20;86.59;102657.71;1457416;97;21299;-94
2021/01/03 09:32:02;;;;;;;42.30;16.80;;;;;;;5.30;86.27;102657.02;1456850;97;22367;-94
2021/01/03 09:34:49;;;;;;;68.60;24.63;;;;;;;5.31;86.09;102654.66;1456827;96;21261;-94
2021/01/03 09:37:23;;;;;;;80.42;28.32;;;;;;;5.29;86.30;102648.65;1434952;98;21697;-94
2021/01/03 09:40:16;;;;;;;65.25;21.65;;;;;;;5.31;86.66;102645.31;1436177;99;21292;-94
2021/01/03 09:43:16;;;;;;;52.15;19.07;;;;;;;5.37;86.27;102642.45;1434586;99;21630;-93
2021/01/03 09:46:06;;;;;;;61.90;22.65;;;;;;;5.43;86.12;102635.89;1436532;99;21275;-94
2021/01/03 09:48:37;;;;;;;69.87;23.90;;;;;;;5.52;86.70;102632.66;1434096;99;21671;-93
2021/01/03 09:51:11;;;;;;;69.17;24.10;;;;;;;5.70;86.53;102627.87;1357521;104;21293;-94
2021/01/03 09:53:41;;;;;;;91.55;31.62;;;;;;;5.64;85.62;102624.56;1354303;105;21305;-94
2021/01/03 09:56:24;;;;;;;100.15;30.97;;;;;;;5.65;86.07;102625.42;1355534;104;21313;-93
2021/01/03 09:58:52;;;;;;;84.70;26.17;;;;;;;5.66;85.48;102619.87;1383972;102;21312;-94
2021/01/03 10:01:32;;;;;;;86.97;26.73;;;;;;;5.77;85.36;102623.17;1386132;102;21245;-95
2021/01/03 10:04:21;;;;;;;89.55;27.10;;;;;;;5.68;85.18;102619.72;1385766;103;21333;-94
2021/01/03 10:06:58;;;;;;;76.50;25.27;;;;;;;5.65;85.19;102623.58;1401046;102;21266;-92
2021/01/03 10:09:30;;;;;;;75.32;24.60;;;;;;;5.70;84.18;102617.17;1404326;102;21314;-94
2021/01/03 10:11:56;;;;;;;68.67;23.00;;;;;;;5.70;84.73;102621.18;1404869;102;21264;-93
2021/01/03 10:14:33;;;;;;;70.92;23.73;;;;;;;5.58;84.30;102615.91;1398416;102;21164;-95
2021/01/03 10:17:19;;;;;;;69.00;24.47;;;;;;;5.60;84.56;102617.92;1393780;102;21708;-94
2021/01/03 10:19:46;;;;;;;75.75;25.00;;;;;;;5.58;83.94;102609.23;1391068;102;21568;-94
2021/01/03 10:22:41;;;;;;;76.25;26.42;;;;;;;5.61;84.40;102612.05;1393828;102;21063;-94
2021/01/03 10:25:13;;;;;;;71.25;24.98;;;;;;;5.68;83.69;102609.84;1441558;98;21348;-95
2021/01/03 10:30:09;;;;;;;75.22;25.68;;;;;;;5.54;84.29;102610.60;1414783;100;21230;-95
2021/01/03 10:32:38;;;;;;;63.75;23.10;;;;;;;5.59;84.42;102613.59;1426281;100;21331;-95
2021/01/03 10:35:06;;;;;;;65.50;22.50;;;;;;;5.66;84.67;102611.86;1430196;100;21736;-94
2021/01/03 10:37:32;;;;;;;60.92;22.25;;;;;;;5.74;83.89;102609.64;1430049;100;21254;-94
2021/01/03 10:39:58;;;;;;;58.70;21.90;;;;;;;5.66;83.08;102605.17;1430037;100;21061;-94
2021/01/03 10:42:24;;;;;;;68.85;24.50;;;;;;;5.66;84.12;102608.36;1429867;100;21052;-93
2021/01/03 10:44:50;;;;;;;65.55;22.77;;;;;;;5.81;83.67;102603.89;1473627;96;21033;-91
2021/01/03 10:47:16;;;;;;;56.05;21.10;;;;;;;5.70;83.31;102601.62;1489556;94;21108;-93
2021/01/03 10:49:42;;;;;;;56.02;20.92;;;;;;;5.80;83.62;102596.89;1524993;94;21236;-93
2021/01/03 10:52:08;;;;;;;40.50;15.43;;;;;;;5.78;84.30;102595.41;1524857;94;21093;-94
2021/01/03 10:54:34;;;;;;;44.42;17.40;;;;;;;5.90;81.61;102572.05;1506362;94;21104;-94
2021/01/03 10:57:00;;;;;;;45.65;15.95;;;;;;;5.97;81.48;102594.11;1524832;94;21105;-90
2021/01/03 10:59:26;;;;;;;43.35;17.10;;;;;;;5.78;81.37;102568.14;1525045;94;21206;-94
2021/01/03 11:01:53;;;;;;;55.35;19.42;;;;;;;5.86;81.48;102586.81;1524980;92;21380;-93
2021/01/03 11:04:23;;;;;;;53.17;20.97;;;;;;;5.81;81.59;102590.52;1525016;94;21212;-94
2021/01/03 11:06:53;;;;;;;60.88;21.97;;;;;;;5.87;81.56;102589.80;1576697;89;21215;-93
2021/01/03 11:09:27;;;;;;;69.55;24.35;;;;;;;5.81;81.54;102593.20;1597750;89;21614;-95
2021/01/03 11:12:01;;;;;;;64.55;24.30;;;;;;;5.83;80.78;102585.83;1507654;95;21264;-95
2021/01/03 11:14:27;;;;;;;77.72;26.68;;;;;;;5.57;81.03;102582.68;1507617;95;21232;-93
2021/01/03 11:16:54;;;;;;;85.05;30.50;;;;;;;5.45;81.82;102577.73;1507691;95;21249;-93
2021/01/03 11:19:21;;;;;;;82.02;29.30;;;;;;;5.48;82.26;102573.05;1489275;95;21735;-93
2021/01/03 11:21:49;;;;;;;83.30;29.57;;;;;;;5.55;81.28;102575.33;1507940;94;21197;-93
2021/01/03 11:24:15;;;;;;;87.80;29.67;;;;;;;5.49;81.73;102576.04;1507912;95;21252;-93
2021/01/03 11:26:43;;;;;;;98.35;31.40;;;;;;;5.56;82.44;102572.97;1506548;95;21338;-94
2021/01/03 11:29:13;;;;;;;100.50;33.05;;;;;;;5.66;82.10;102579.76;1500166;95;21207;-94
2021/01/03 11:31:49;;;;;;;101.40;33.35;;;;;;;5.69;81.76;102577.23;1500434;95;21303;-94
2021/01/03 11:34:20;;;;;;;89.55;30.27;;;;;;;5.66;81.32;102573.58;1568416;90;21235;-91
2021/01/03 11:37:02;;;;;;;83.10;29.35;;;;;;;5.65;80.58;102575.44;1582467;90;21071;-91
2021/01/03 11:39:30;;;;;;;90.30;31.05;;;;;;;5.54;81.07;102572.34;1582448;90;21692;-90
2021/01/03 11:41:59;;;;;;;82.33;29.48;;;;;;;5.64;80.23;102570.25;1582273;90;21265;-90
2021/01/03 11:44:25;;;;;;;80.38;28.02;;;;;;;5.62;80.07;102564.27;1589778;89;21152;-94
2021/01/03 11:47:01;;;;;;;75.67;26.93;;;;;;;5.56;80.78;102562.27;1601021;89;21548;-93
2021/01/03 11:49:27;;;;;;;73.52;26.65;;;;;;;5.48;81.55;102557.83;1591970;88;21204;-92